createdAt,value
2018-09-28T00:01:52.010Z,98.60
2018-09-28T00:04:20.848Z,98.60
2018-09-28T00:06:49.649Z,98.40
2018-09-28T00:09:18.429Z,98.40
2018-09-28T00:11:47.285Z,98.60
2018-09-28T00:14:16.047Z,98.70
2018-09-28T00:16:44.945Z,99.20
2018-09-28T00:19:13.709Z,99.20
2018-09-28T00:21:42.619Z,99.40
2018-09-28T00:24:11.599Z,99.60
2018-09-28T00:26:40.391Z,99.70
2018-09-28T00:29:09.202Z,99.90
2018-09-28T00:31:37.933Z,99.90
2018-09-28T00:34:06.724Z,99.90
2018-09-28T00:36:35.576Z,99.90
2018-09-28T00:39:05.978Z,99.90
2018-09-28T00:41:34.787Z,99.90
2018-09-28T00:44:03.794Z,99.90
2018-09-28T00:46:33.335Z,99.90
2018-09-28T00:49:02.319Z,99.90
2018-09-28T00:51:31.105Z,99.90
2018-09-28T00:54:00.133Z,99.90
2018-09-28T00:56:29.005Z,99.90
2018-09-28T00:58:57.987Z,99.90
2018-09-28T01:01:26.760Z,99.90
2018-09-28T01:03:55.582Z,99.90
2018-09-28T01:06:24.328Z,99.90
2018-09-28T01:08:53.231Z,99.90
2018-09-28T01:11:22.114Z,99.90
2018-09-28T01:13:51.028Z,99.90
2018-09-28T01:16:19.704Z,99.90
2018-09-28T01:18:48.567Z,99.90
2018-09-28T01:21:17.324Z,99.90
2018-09-28T01:23:46.124Z,99.90
2018-09-28T01:26:15.039Z,99.90
2018-09-28T01:28:43.904Z,99.90
2018-09-28T01:31:12.615Z,99.90
2018-09-28T01:33:41.389Z,99.90
2018-09-28T01:36:10.154Z,99.90
2018-09-28T01:38:39.089Z,99.90
2018-09-28T01:41:07.938Z,99.90
2018-09-28T01:43:36.853Z,99.90
2018-09-28T01:46:05.653Z,99.90
2018-09-28T01:48:34.426Z,99.90
2018-09-28T01:51:03.181Z,99.90
2018-09-28T01:53:31.973Z,99.90
2018-09-28T01:56:00.790Z,99.90
2018-09-28T01:58:29.564Z,99.90
2018-09-28T02:00:58.333Z,99.90
2018-09-28T02:03:27.202Z,99.90
2018-09-28T02:05:56.134Z,99.90
2018-09-28T02:08:25.015Z,99.90
2018-09-28T02:10:53.749Z,99.90
2018-09-28T02:13:22.467Z,99.90
2018-09-28T02:15:51.261Z,99.90
2018-09-28T02:18:20.062Z,99.90
2018-09-28T02:20:48.851Z,99.90
2018-09-28T02:23:17.860Z,99.90
2018-09-28T02:25:46.674Z,99.90
2018-09-28T02:28:15.427Z,99.90
2018-09-28T02:30:44.307Z,99.90
2018-09-28T02:33:13.099Z,99.90
2018-09-28T02:35:42.003Z,99.90
2018-09-28T02:38:10.798Z,99.90
2018-09-28T02:40:39.573Z,99.90
2018-09-28T02:43:08.300Z,99.90
2018-09-28T02:45:37.081Z,99.90
2018-09-28T02:48:06.034Z,99.90
2018-09-28T02:50:35.061Z,99.90
2018-09-28T02:53:03.877Z,99.90
2018-09-28T02:55:32.686Z,99.90
2018-09-28T02:58:01.452Z,99.90
2018-09-28T03:00:30.487Z,99.90
2018-09-28T03:02:59.287Z,99.90
2018-09-28T03:05:28.162Z,99.90
2018-09-28T03:07:56.927Z,99.90
2018-09-28T03:10:25.710Z,99.90
2018-09-28T03:12:54.451Z,99.90
2018-09-28T03:15:23.267Z,99.90
2018-09-28T03:17:52.101Z,99.90
2018-09-28T03:20:21.124Z,99.90
2018-09-28T03:22:49.891Z,99.90
2018-09-28T03:25:25.636Z,99.90
2018-09-28T03:27:54.423Z,99.90
2018-09-28T03:30:23.198Z,99.90
2018-09-28T03:32:51.917Z,99.90
2018-09-28T03:35:20.781Z,99.90
2018-09-28T03:37:49.775Z,99.90
2018-09-28T03:40:18.762Z,99.90
2018-09-28T03:42:47.585Z,99.90
2018-09-28T03:45:16.404Z,99.90
2018-09-28T03:47:47.475Z,99.90
2018-09-28T03:50:16.555Z,99.90
2018-09-28T03:52:45.286Z,99.90
2018-09-28T03:55:14.333Z,99.90
2018-09-28T03:57:43.089Z,99.90
2018-09-28T04:00:12.231Z,99.90
2018-09-28T04:02:41.698Z,99.90
2018-09-28T04:05:10.572Z,99.90
2018-09-28T04:07:39.354Z,99.90
2018-09-28T04:10:09.135Z,99.90
2018-09-28T04:12:38.084Z,99.90
2018-09-28T04:15:07.263Z,99.90
2018-09-28T04:17:36.044Z,99.90
2018-09-28T04:20:04.876Z,99.90
2018-09-28T04:22:33.660Z,99.90
2018-09-28T04:25:02.566Z,99.90
2018-09-28T04:27:31.602Z,99.90
2018-09-28T04:30:00.371Z,99.90
2018-09-28T04:32:29.229Z,99.90
2018-09-28T04:34:57.992Z,99.90
2018-09-28T04:37:26.720Z,99.90
2018-09-28T04:39:55.582Z,99.90
2018-09-28T04:42:24.366Z,99.90
2018-09-28T04:44:53.094Z,99.90
2018-09-28T04:47:21.891Z,99.90
2018-09-28T04:49:50.642Z,99.90
2018-09-28T04:52:19.458Z,99.90
2018-09-28T04:54:48.237Z,99.90
2018-09-28T04:57:17.231Z,99.90
2018-09-28T04:59:45.969Z,99.90
2018-09-28T05:02:14.817Z,99.90
2018-09-28T05:04:43.581Z,99.90
2018-09-28T05:07:12.363Z,99.90
2018-09-28T05:09:41.192Z,99.90
2018-09-28T05:12:10.033Z,99.90
2018-09-28T05:14:38.801Z,99.90
2018-09-28T05:17:07.666Z,99.90
2018-09-28T05:19:37.508Z,99.90
2018-09-28T05:22:06.267Z,99.90
2018-09-28T05:24:35.272Z,99.90
2018-09-28T05:27:04.130Z,99.90
2018-09-28T05:29:32.980Z,99.90
2018-09-28T05:32:01.943Z,99.90
2018-09-28T05:34:30.678Z,99.90
2018-09-28T05:36:59.509Z,99.90
2018-09-28T05:39:28.326Z,99.90
2018-09-28T05:41:57.306Z,99.90
2018-09-28T05:44:26.129Z,99.90
2018-09-28T05:46:54.975Z,99.90
2018-09-28T05:49:23.820Z,99.90
2018-09-28T05:51:52.906Z,99.90
2018-09-28T05:54:21.812Z,99.90
2018-09-28T05:56:50.619Z,99.90
2018-09-28T05:59:24.825Z,99.90
2018-09-28T06:01:59.056Z,99.90
2018-09-28T06:04:33.171Z,99.90
2018-09-28T06:07:02.151Z,99.90
2018-09-28T06:09:31.071Z,99.90
2018-09-28T06:12:00.057Z,99.90
2018-09-28T06:14:28.987Z,99.90
2018-09-28T06:16:57.838Z,99.90
2018-09-28T06:19:26.670Z,99.90
2018-09-28T06:21:55.639Z,99.90
2018-09-28T06:24:24.528Z,99.90
2018-09-28T06:26:53.331Z,99.90
2018-09-28T06:29:22.330Z,99.90
2018-09-28T06:31:51.121Z,99.90
2018-09-28T06:34:19.912Z,99.90
2018-09-28T06:36:48.811Z,99.90
2018-09-28T06:39:18.071Z,99.90
2018-09-28T06:41:47.531Z,99.90
2018-09-28T06:44:16.642Z,99.90
2018-09-28T06:46:45.851Z,99.90
2018-09-28T06:49:14.908Z,99.90
2018-09-28T06:51:44.088Z,99.90
2018-09-28T06:54:13.304Z,99.90
2018-09-28T06:56:42.107Z,99.90
2018-09-28T06:59:11.111Z,99.90
2018-09-28T07:01:39.983Z,99.90
2018-09-28T07:04:08.899Z,99.90
2018-09-28T07:06:37.923Z,99.90
2018-09-28T07:09:09.746Z,99.90
2018-09-28T07:11:38.734Z,99.90
2018-09-28T07:14:08.175Z,99.90
2018-09-28T07:16:37.395Z,99.90
2018-09-28T07:19:06.896Z,99.90
2018-09-28T07:21:35.839Z,99.90
2018-09-28T07:24:04.878Z,99.90
2018-09-28T07:26:33.862Z,99.90
2018-09-28T07:29:02.920Z,99.70
2018-09-28T07:31:31.890Z,99.40
2018-09-28T07:34:00.760Z,99.50
2018-09-28T07:36:29.843Z,99.40
2018-09-28T07:38:58.637Z,98.80
2018-09-28T07:41:27.676Z,99.10
2018-09-28T07:43:56.733Z,98.90
2018-09-28T07:46:25.943Z,98.70
2018-09-28T07:48:54.932Z,98.70
2018-09-28T07:51:23.838Z,98.80
2018-09-28T07:53:52.826Z,98.80
2018-09-28T07:56:22.240Z,98.70
2018-09-28T07:58:51.323Z,98.20
2018-09-28T08:01:20.335Z,98.10
2018-09-28T08:03:49.452Z,97.90
2018-09-28T08:06:18.499Z,97.70
2018-09-28T08:08:47.662Z,97.70
2018-09-28T08:11:16.665Z,97.80
2018-09-28T08:13:45.506Z,97.80
2018-09-28T08:16:14.421Z,97.80
2018-09-28T08:18:43.570Z,97.80
2018-09-28T08:21:12.633Z,97.90
2018-09-28T08:23:41.567Z,97.90
2018-09-28T08:26:10.459Z,98.30
2018-09-28T08:28:39.263Z,98.30
2018-09-28T08:31:08.204Z,98.60
2018-09-28T08:33:37.136Z,98.00
2018-09-28T08:36:06.081Z,98.30
2018-09-28T08:38:35.178Z,98.30
2018-09-28T08:41:04.383Z,98.10
2018-09-28T08:43:33.416Z,98.20
2018-09-28T08:46:02.339Z,98.30
2018-09-28T08:48:31.320Z,98.30
2018-09-28T08:51:00.280Z,98.30
2018-09-28T08:53:29.683Z,98.30
2018-09-28T08:55:58.580Z,98.30
2018-09-28T08:58:28.207Z,98.30
2018-09-28T09:00:57.186Z,98.40
2018-09-28T09:03:26.054Z,98.60
2018-09-28T09:05:54.964Z,98.60
2018-09-28T09:08:23.839Z,98.80
2018-09-28T09:10:53.449Z,99.20
2018-09-28T09:13:22.371Z,99.90
2018-09-28T09:15:51.825Z,99.90
2018-09-28T09:18:21.224Z,99.90
2018-09-28T09:20:50.162Z,99.90
2018-09-28T09:23:20.112Z,99.90
2018-09-28T09:25:49.338Z,99.90
2018-09-28T09:28:18.295Z,99.90
2018-09-28T09:30:47.189Z,99.90
2018-09-28T09:33:16.425Z,99.90
2018-09-28T09:35:45.273Z,99.90
2018-09-28T09:38:14.693Z,99.90
2018-09-28T09:40:43.630Z,99.90
2018-09-28T09:43:12.703Z,99.90
2018-09-28T09:45:41.829Z,99.90
2018-09-28T09:48:10.875Z,99.90
2018-09-28T09:50:40.008Z,99.90
2018-09-28T09:53:09.279Z,99.90
2018-09-28T09:55:42.640Z,99.90
2018-09-28T09:58:11.971Z,99.90
2018-09-28T10:00:46.359Z,99.90
2018-09-28T10:03:20.635Z,99.90
2018-09-28T10:05:49.732Z,99.90
2018-09-28T10:08:18.629Z,99.90
2018-09-28T10:10:47.716Z,99.90
2018-09-28T10:13:16.538Z,99.90
2018-09-28T10:15:45.521Z,99.90
2018-09-28T10:18:14.393Z,99.90
2018-09-28T10:20:43.457Z,99.90
2018-09-28T10:23:12.579Z,99.90
2018-09-28T10:25:41.754Z,99.90
2018-09-28T10:28:10.776Z,99.90
2018-09-28T10:30:39.891Z,99.90
2018-09-28T10:33:11.730Z,99.90
2018-09-28T10:35:40.833Z,99.90
2018-09-28T10:38:09.808Z,99.90
2018-09-28T10:40:38.914Z,99.90
2018-09-28T10:43:07.709Z,99.90
2018-09-28T10:45:36.705Z,99.90
2018-09-28T10:48:05.620Z,99.90
2018-09-28T10:50:34.490Z,99.90
2018-09-28T10:53:03.563Z,99.90
2018-09-28T10:55:32.551Z,99.90
2018-09-28T10:58:01.577Z,99.90
2018-09-28T11:00:30.588Z,99.90
2018-09-28T11:02:59.396Z,99.90
2018-09-28T11:05:28.274Z,99.90
2018-09-28T11:07:57.400Z,99.90
2018-09-28T11:10:26.424Z,99.90
2018-09-28T11:12:55.587Z,99.90
2018-09-28T11:15:24.423Z,99.90
2018-09-28T11:17:53.346Z,99.90
2018-09-28T11:20:22.406Z,99.90
2018-09-28T11:22:51.839Z,99.90
2018-09-28T11:25:20.797Z,99.90
2018-09-28T11:27:49.780Z,99.90
2018-09-28T11:30:18.645Z,99.90
2018-09-28T11:32:47.614Z,99.90
2018-09-28T11:35:16.588Z,99.90
2018-09-28T11:37:45.951Z,99.90
2018-09-28T11:40:14.672Z,99.90
2018-09-28T11:42:43.654Z,99.90
2018-09-28T11:45:12.833Z,99.90
2018-09-28T11:47:41.759Z,99.90
2018-09-28T11:50:11.079Z,99.90
2018-09-28T11:52:40.045Z,99.90
2018-09-28T11:55:09.265Z,99.90
2018-09-28T11:57:38.243Z,99.90
2018-09-28T12:00:07.152Z,99.90
2018-09-28T12:02:36.195Z,99.90
2018-09-28T12:05:05.612Z,99.90
2018-09-28T12:07:34.710Z,99.90
2018-09-28T12:10:04.584Z,99.90
2018-09-28T12:12:33.572Z,99.90
2018-09-28T12:15:02.718Z,99.90
2018-09-28T12:17:31.959Z,99.90
2018-09-28T12:20:00.868Z,99.90
2018-09-28T12:22:29.869Z,99.90
2018-09-28T12:24:58.968Z,99.90
2018-09-28T12:27:27.942Z,99.90
2018-09-28T12:29:56.757Z,99.90
2018-09-28T12:32:25.878Z,99.90
2018-09-28T12:34:54.665Z,99.90
2018-09-28T12:37:23.528Z,99.90
2018-09-28T12:39:52.568Z,99.90
2018-09-28T12:42:21.873Z,99.90
2018-09-28T12:44:50.961Z,99.90
2018-09-28T12:47:19.888Z,99.90
2018-09-28T12:49:49.047Z,99.90
2018-09-28T12:52:17.955Z,99.90
2018-09-28T12:54:47.435Z,99.90
2018-09-28T12:57:16.342Z,99.90
2018-09-28T12:59:45.314Z,99.90
2018-09-28T13:02:14.447Z,99.90
2018-09-28T13:04:43.274Z,99.90
2018-09-28T13:07:12.514Z,99.90
2018-09-28T13:09:41.530Z,99.90
2018-09-28T13:12:10.552Z,99.90
2018-09-28T13:14:39.547Z,99.90
2018-09-28T13:17:08.546Z,99.90
2018-09-28T13:19:37.818Z,99.90
2018-09-28T13:22:06.975Z,99.90
2018-09-28T13:24:35.997Z,99.90
2018-09-28T13:27:05.039Z,99.90
2018-09-28T13:29:34.018Z,99.90
2018-09-28T13:32:02.815Z,99.90
2018-09-28T13:34:31.652Z,99.90
2018-09-28T13:37:00.719Z,99.90
2018-09-28T13:39:29.710Z,99.90
2018-09-28T13:41:58.547Z,99.90
2018-09-28T13:44:27.511Z,99.90
2018-09-28T13:46:56.269Z,99.90
2018-09-28T13:49:25.110Z,99.90
2018-09-28T13:51:54.145Z,99.90
2018-09-28T13:54:25.737Z,99.90
2018-09-28T13:56:56.673Z,99.90
2018-09-28T13:59:25.580Z,99.90
2018-09-28T14:01:54.708Z,99.90
2018-09-28T14:04:23.974Z,99.90
2018-09-28T14:06:55.283Z,99.90
2018-09-28T14:09:24.076Z,99.90
2018-09-28T14:11:53.202Z,99.90
2018-09-28T14:14:22.232Z,99.90
2018-09-28T14:16:51.245Z,99.90
2018-09-28T14:19:20.104Z,99.90
2018-09-28T14:21:55.274Z,99.90
2018-09-28T14:24:24.145Z,99.90
2018-09-28T14:26:52.874Z,99.90
2018-09-28T14:29:21.714Z,99.90
2018-09-28T14:31:51.604Z,99.80
2018-09-28T14:34:20.668Z,99.10
2018-09-28T14:36:49.593Z,99.00
2018-09-28T14:39:18.605Z,97.90
2018-09-28T14:41:47.518Z,97.70
2018-09-28T14:44:16.465Z,98.00
2018-09-28T14:46:45.349Z,97.70
2018-09-28T14:49:14.318Z,97.10
2018-09-28T14:51:43.132Z,97.10
2018-09-28T14:54:12.161Z,96.40
2018-09-28T14:56:41.054Z,96.30
2018-09-28T14:59:09.969Z,96.60
2018-09-28T15:01:38.797Z,95.80
2018-09-28T15:04:07.855Z,95.80
2018-09-28T15:06:36.676Z,96.10
2018-09-28T15:09:07.416Z,95.70
2018-09-28T15:11:36.469Z,95.80
2018-09-28T15:14:05.203Z,96.10
2018-09-28T15:16:35.500Z,96.30
2018-09-28T15:19:04.418Z,96.30
2018-09-28T15:21:33.246Z,96.40
2018-09-28T15:24:02.144Z,96.60
2018-09-28T15:26:31.112Z,96.10
2018-09-28T15:28:59.899Z,96.10
2018-09-28T15:31:28.850Z,96.30
2018-09-28T15:33:57.757Z,96.50
2018-09-28T15:36:26.699Z,95.70
2018-09-28T15:38:55.521Z,95.40
2018-09-28T15:41:24.300Z,95.10
2018-09-28T15:43:53.176Z,95.50
2018-09-28T15:46:22.335Z,94.90
2018-09-28T15:48:51.103Z,92.80
2018-09-28T15:51:19.899Z,93.20
2018-09-28T15:53:48.905Z,94.00
2018-09-28T15:56:17.691Z,94.20
2018-09-28T15:58:46.497Z,94.60
2018-09-28T16:01:15.368Z,94.50
2018-09-28T16:03:44.349Z,94.30
2018-09-28T16:06:13.371Z,93.90
2018-09-28T16:08:42.422Z,93.90
2018-09-28T16:11:11.193Z,94.10
2018-09-28T16:13:39.980Z,94.20
2018-09-28T16:16:08.825Z,93.90
2018-09-28T16:18:37.873Z,93.60
2018-09-28T16:21:06.895Z,93.70
2018-09-28T16:23:36.164Z,93.30
2018-09-28T16:26:05.520Z,93.50
2018-09-28T16:28:34.508Z,93.50
2018-09-28T16:31:03.312Z,93.70
2018-09-28T16:33:32.261Z,93.90
2018-09-28T16:36:01.191Z,94.10
2018-09-28T16:38:30.058Z,94.30
2018-09-28T16:40:58.970Z,94.50
2018-09-28T16:43:27.797Z,94.70
2018-09-28T16:45:56.619Z,94.90
2018-09-28T16:48:25.403Z,95.30
2018-09-28T16:50:54.252Z,95.10
2018-09-28T16:53:23.042Z,95.40
2018-09-28T16:55:51.859Z,95.50
2018-09-28T16:58:20.686Z,95.90
2018-09-28T17:00:49.604Z,95.80
2018-09-28T17:03:18.769Z,96.20
2018-09-28T17:05:47.582Z,96.40
2018-09-28T17:08:16.532Z,96.20
2018-09-28T17:10:45.323Z,96.10
2018-09-28T17:13:14.185Z,96.50
2018-09-28T17:15:43.361Z,96.70
2018-09-28T17:18:12.213Z,97.00
2018-09-28T17:20:41.471Z,97.30
2018-09-28T17:23:10.669Z,97.80
2018-09-28T17:25:39.931Z,98.30
2018-09-28T17:28:08.950Z,98.90
2018-09-28T17:30:38.127Z,99.20
2018-09-28T17:33:07.420Z,99.00
2018-09-28T17:35:36.491Z,99.20
2018-09-28T17:38:05.655Z,99.30
2018-09-28T17:40:34.720Z,99.30
2018-09-28T17:43:03.868Z,99.10
2018-09-28T17:45:32.931Z,99.00
2018-09-28T17:48:02.146Z,99.20
2018-09-28T17:50:31.063Z,99.30
2018-09-28T17:53:00.247Z,99.30
2018-09-28T17:55:29.611Z,99.30
2018-09-28T17:57:58.890Z,99.50
2018-09-28T18:00:28.141Z,99.40
2018-09-28T18:02:57.414Z,99.40
2018-09-28T18:05:26.805Z,99.60
2018-09-28T18:07:58.848Z,99.50
2018-09-28T18:10:28.229Z,99.70
2018-09-28T18:12:57.606Z,99.90
2018-09-28T18:15:26.865Z,99.90
2018-09-28T18:17:56.293Z,99.90
2018-09-28T18:20:25.719Z,99.90
2018-09-28T18:22:55.002Z,99.90
2018-09-28T18:25:24.259Z,99.90
2018-09-28T18:27:53.603Z,99.90
2018-09-28T18:30:22.859Z,99.90
2018-09-28T18:32:52.124Z,99.90
2018-09-28T18:35:21.508Z,99.90
2018-09-28T18:37:50.929Z,99.90
2018-09-28T18:40:20.299Z,99.90
2018-09-28T18:42:49.624Z,99.90
2018-09-28T18:45:18.870Z,99.90
2018-09-28T18:47:48.190Z,99.90
2018-09-28T18:50:17.560Z,99.90
2018-09-28T18:52:46.860Z,99.90
2018-09-28T18:55:16.626Z,99.90
2018-09-28T18:57:46.148Z,99.90
2018-09-28T19:00:15.628Z,99.90
2018-09-28T19:02:45.170Z,99.90
2018-09-28T19:05:14.561Z,99.90
2018-09-28T19:07:43.890Z,99.90
2018-09-28T19:10:13.192Z,99.90
2018-09-28T19:12:42.752Z,99.90
2018-09-28T19:15:12.160Z,99.90
2018-09-28T19:17:41.447Z,99.90
2018-09-28T19:20:10.709Z,99.90
2018-09-28T19:22:40.556Z,99.90
2018-09-28T19:25:10.103Z,99.90
2018-09-28T19:27:39.957Z,99.90
2018-09-28T19:30:09.458Z,99.90
2018-09-28T19:32:38.879Z,99.90
2018-09-28T19:35:08.450Z,99.90
2018-09-28T19:37:38.127Z,99.90
2018-09-28T19:40:07.676Z,99.90
2018-09-28T19:42:36.858Z,99.90
2018-09-28T19:45:06.783Z,99.90
2018-09-28T19:47:36.180Z,99.90
2018-09-28T19:50:05.809Z,99.90
2018-09-28T19:52:35.220Z,99.90
2018-09-28T19:55:04.665Z,99.90
2018-09-28T19:57:34.504Z,99.90
2018-09-28T20:00:03.788Z,99.90
2018-09-28T20:02:33.087Z,99.90
2018-09-28T20:05:02.415Z,99.90
2018-09-28T20:07:31.827Z,99.90
2018-09-28T20:10:01.293Z,99.90
2018-09-28T20:12:30.790Z,99.90
2018-09-28T20:15:00.044Z,99.90
2018-09-28T20:17:29.339Z,99.90
2018-09-28T20:19:58.681Z,99.90
2018-09-28T20:22:27.951Z,99.90
2018-09-28T20:24:57.287Z,99.90
2018-09-28T20:27:26.522Z,99.90
2018-09-28T20:29:55.794Z,99.90
2018-09-28T20:32:25.174Z,99.90
2018-09-28T20:34:54.600Z,99.90
2018-09-28T20:37:23.978Z,99.90
2018-09-28T20:39:53.422Z,99.90
2018-09-28T20:42:22.570Z,99.90
2018-09-28T20:44:51.630Z,99.90
2018-09-28T20:47:21.665Z,99.90
2018-09-28T20:49:50.990Z,99.90
2018-09-28T20:52:20.360Z,99.90
2018-09-28T20:54:49.537Z,99.90
2018-09-28T20:57:18.671Z,99.90
2018-09-28T20:59:47.510Z,99.90
2018-09-28T21:02:16.559Z,99.90
2018-09-28T21:04:45.420Z,99.90
2018-09-28T21:07:14.217Z,99.90
2018-09-28T21:09:43.027Z,99.90
2018-09-28T21:12:11.791Z,99.90
2018-09-28T21:14:41.484Z,99.90
2018-09-28T21:17:10.424Z,99.90
2018-09-28T21:19:39.207Z,99.90
2018-09-28T21:22:07.970Z,99.90
2018-09-28T21:24:36.721Z,99.90
2018-09-28T21:27:06.593Z,99.90
2018-09-28T21:29:35.430Z,99.90
2018-09-28T21:32:04.290Z,99.90
2018-09-28T21:34:33.226Z,99.90
2018-09-28T21:37:02.056Z,99.90
2018-09-28T21:39:30.869Z,99.90
2018-09-28T21:41:59.622Z,99.90
2018-09-28T21:44:28.374Z,99.90
2018-09-28T21:46:57.189Z,99.90
2018-09-28T21:49:26.108Z,99.90
2018-09-28T21:51:55.028Z,99.90
2018-09-28T21:54:24.026Z,99.90
2018-09-28T21:56:52.860Z,99.90
2018-09-28T21:59:21.691Z,99.90
2018-09-28T22:01:50.451Z,99.90
2018-09-28T22:04:19.202Z,99.90
2018-09-28T22:06:47.988Z,99.90
2018-09-28T22:09:16.831Z,99.90
2018-09-28T22:11:45.589Z,99.90
2018-09-28T22:14:14.467Z,99.90
2018-09-28T22:16:43.210Z,99.90
2018-09-28T22:19:12.228Z,99.90
2018-09-28T22:21:41.005Z,99.90
2018-09-28T22:24:09.781Z,99.90
2018-09-28T22:26:39.612Z,99.90
2018-09-28T22:29:08.413Z,99.90
2018-09-28T22:31:37.221Z,99.90
2018-09-28T22:34:12.268Z,99.90
2018-09-28T22:36:41.973Z,99.90
2018-09-28T22:39:11.882Z,99.90
2018-09-28T22:41:40.980Z,99.90
2018-09-28T22:44:09.755Z,99.90
2018-09-28T22:46:38.836Z,99.90
2018-09-28T22:49:07.669Z,99.90
2018-09-28T22:51:36.432Z,99.90
2018-09-28T22:54:05.237Z,99.90
2018-09-28T22:56:34.017Z,99.90
2018-09-28T22:59:02.770Z,99.90
2018-09-28T23:01:31.587Z,99.90
2018-09-28T23:04:00.376Z,99.90
2018-09-28T23:06:29.299Z,99.90
2018-09-28T23:08:58.070Z,99.90
2018-09-28T23:11:26.875Z,99.90
2018-09-28T23:13:55.721Z,99.90
2018-09-28T23:16:24.478Z,99.90
2018-09-28T23:18:53.304Z,99.90
2018-09-28T23:21:22.138Z,99.90
2018-09-28T23:23:50.909Z,99.90
2018-09-28T23:26:19.821Z,99.90
2018-09-28T23:28:48.628Z,99.90
2018-09-28T23:31:17.400Z,99.90
2018-09-28T23:33:46.231Z,99.90
2018-09-28T23:36:14.954Z,99.90
2018-09-28T23:38:43.707Z,99.90
2018-09-28T23:41:12.465Z,99.90
2018-09-28T23:43:41.295Z,99.90
2018-09-28T23:46:09.999Z,99.90
2018-09-28T23:48:38.978Z,99.90
2018-09-28T23:51:07.785Z,99.90
2018-09-28T23:53:36.883Z,99.90
2018-09-28T23:56:05.683Z,99.90
2018-09-28T23:58:34.467Z,99.90
